Conway, Arkansas
Current Conditions -  °F | °C
As of 8:58 PM on Friday 28 Nov 2014 (Local Time) from KLRF Reporting Station
Clear Clear  
Wind Chill: 47°   Ceiling: Unl
Heat Index: 50°   Visibility: 10mi
Dew Point: 36°   Wind: 7mph
Humidity: 59%   Direction: 190°S
Pressure: 30.06"   Gusts: NA
Location:  35.09°N, 92.44°W
Report Text: KLRF 290258Z AUTO 19006KT 10SM CLR 10/02 A3006 RMK AO2 SLP183 T00990023 55012 $
Loading
Personal Weather Stations






























Interactive Weather Map New forecast layout! Learn more

10-Day Weather Forecast

Advertisements
Track Severe Weather on mobile